Time;durP1;ratioP1;P1;durP2;ratioP2;P2;SDS_P1;SDS_P2;PMS_P1;PMS_P2;Temp;Humidity;BMP_temperature;BMP_pressure;BME280_temperature;BME280_humidity;BME280_pressure;Samples;Min_cycle;Max_cycle;Signal;HPM_P1;HPM_P2
2023/07/18 00:00:56;;;;;;;;;;;20.60;99.90;;;;;;4981795;28;20827;-74
2023/07/18 00:03:22;;;;;;;;;;;20.50;99.90;;;;;;4983766;28;19967;-73
2023/07/18 00:05:47;;;;;;;;;;;20.60;99.90;;;;;;4972922;28;19948;-74
2023/07/18 00:08:14;;;;;;;;;;;20.60;99.90;;;;;;4984245;28;20038;-74
2023/07/18 00:10:39;;;;;;;;;;;20.60;99.90;;;;;;4971109;28;20047;-73
2023/07/18 00:13:05;;;;;;;;;;;20.70;99.90;;;;;;4980452;28;20358;-74
2023/07/18 00:15:31;;;;;;;;;;;20.70;99.90;;;;;;4979404;28;19993;-74
2023/07/18 00:17:56;;;;;;;;;;;20.70;99.90;;;;;;4983261;28;20414;-69
2023/07/18 00:20:23;;;;;;;;;;;20.60;99.90;;;;;;4980043;28;20912;-69
2023/07/18 00:22:49;;;;;;;;;;;20.60;99.90;;;;;;4985740;28;20048;-68
2023/07/18 00:25:16;;;;;;;;;;;20.60;99.90;;;;;;4986337;28;19988;-68
2023/07/18 00:27:53;;;;;;;;;;;20.50;99.90;;;;;;4980712;28;20042;-69
2023/07/18 00:30:20;;;;;;;;;;;20.40;99.90;;;;;;4983730;28;19957;-68
2023/07/18 00:32:46;;;;;;;;;;;20.40;99.90;;;;;;4979786;28;19945;-69
2023/07/18 00:35:12;;;;;;;;;;;20.40;99.90;;;;;;4986736;28;19954;-75
2023/07/18 00:37:41;;;;;;;;;;;20.40;99.90;;;;;;4981079;28;19935;-67
2023/07/18 00:40:10;;;;;;;;;;;20.40;99.90;;;;;;4983078;28;20054;-69
2023/07/18 00:42:39;;;;;;;;;;;20.30;99.90;;;;;;4978486;28;21272;-69
2023/07/18 00:45:05;;;;;;;;;;;20.30;99.90;;;;;;4982192;28;19998;-68
2023/07/18 00:47:31;;;;;;;;;;;20.30;99.90;;;;;;4981149;28;19943;-69
2023/07/18 00:49:57;;;;;;;;;;;20.40;99.90;;;;;;4976944;28;20116;-68
2023/07/18 00:52:24;;;;;;;;;;;20.40;99.90;;;;;;4980627;28;20405;-69
2023/07/18 00:54:50;;;;;;;;;;;20.50;99.90;;;;;;4979513;28;19941;-68
2023/07/18 00:57:16;;;;;;;;;;;20.40;99.90;;;;;;4979128;28;19939;-68
2023/07/18 00:59:41;;;;;;;;;;;20.40;99.90;;;;;;4975090;28;19940;-70
2023/07/18 01:02:07;;;;;;;;;;;20.30;99.90;;;;;;4975913;28;19966;-67
2023/07/18 01:04:33;;;;;;;;;;;20.20;99.90;;;;;;4982117;28;19937;-68
2023/07/18 01:06:59;;;;;;;;;;;20.30;99.90;;;;;;4979826;28;20382;-69
2023/07/18 01:09:25;;;;;;;;;;;20.30;99.90;;;;;;4983405;28;19935;-68
2023/07/18 01:11:50;;;;;;;;;;;20.30;99.90;;;;;;4960801;28;20395;-74
2023/07/18 01:14:16;;;;;;;;;;;20.40;99.90;;;;;;4986778;28;20033;-73
2023/07/18 01:16:41;;;;;;;;;;;20.50;99.90;;;;;;4975539;28;20023;-74
2023/07/18 01:19:07;;;;;;;;;;;20.50;99.90;;;;;;4983679;28;19942;-73
2023/07/18 01:21:33;;;;;;;;;;;20.60;99.90;;;;;;4979912;28;20360;-73
2023/07/18 01:23:58;;;;;;;;;;;20.80;99.90;;;;;;4988632;28;19938;-73
2023/07/18 01:26:24;;;;;;;;;;;21.00;99.90;;;;;;4985297;28;19933;-73
2023/07/18 01:28:49;;;;;;;;;;;21.20;99.90;;;;;;4986524;28;19942;-74
2023/07/18 01:31:15;;;;;;;;;;;21.20;99.90;;;;;;4982202;28;20319;-73
2023/07/18 01:33:43;;;;;;;;;;;21.30;99.90;;;;;;4968061;28;19953;-74
2023/07/18 01:36:09;;;;;;;;;;;21.30;99.90;;;;;;4981270;28;19937;-75
2023/07/18 01:38:34;;;;;;;;;;;21.40;99.90;;;;;;4981912;28;19927;-72
2023/07/18 01:41:00;;;;;;;;;;;21.50;99.90;;;;;;4985839;28;20040;-73
2023/07/18 01:43:25;;;;;;;;;;;21.50;99.90;;;;;;4986505;28;19943;-74
2023/07/18 01:45:51;;;;;;;;;;;21.60;99.90;;;;;;4986001;28;19958;-73
2023/07/18 01:48:18;;;;;;;;;;;21.60;99.90;;;;;;4985604;28;20932;-69
2023/07/18 01:50:44;;;;;;;;;;;21.70;99.90;;;;;;4981250;28;19970;-75
2023/07/18 01:53:11;;;;;;;;;;;21.70;99.90;;;;;;4990099;28;19937;-74
2023/07/18 01:55:40;;;;;;;;;;;21.60;99.90;;;;;;4987002;28;19930;-74
2023/07/18 01:58:05;;;;;;;;;;;21.60;99.90;;;;;;4980315;28;19939;-75
2023/07/18 02:00:32;;;;;;;;;;;21.70;99.90;;;;;;4981672;28;19949;-74
2023/07/18 02:02:58;;;;;;;;;;;21.70;99.90;;;;;;4989470;28;19962;-75
2023/07/18 02:05:24;;;;;;;;;;;21.70;99.90;;;;;;4984520;28;19937;-75
2023/07/18 02:07:50;;;;;;;;;;;21.70;99.90;;;;;;4984594;28;20588;-74
2023/07/18 02:10:19;;;;;;;;;;;21.70;99.90;;;;;;4977459;28;19965;-69
2023/07/18 02:12:45;;;;;;;;;;;21.70;99.90;;;;;;4980751;28;19944;-69
2023/07/18 02:15:13;;;;;;;;;;;21.70;99.90;;;;;;4981776;28;19940;-68
2023/07/18 02:17:38;;;;;;;;;;;21.70;99.90;;;;;;4983264;28;19942;-69
2023/07/18 02:20:06;;;;;;;;;;;21.70;99.90;;;;;;4985560;28;19941;-69
2023/07/18 02:22:35;;;;;;;;;;;21.70;99.90;;;;;;4985385;28;19935;-68
2023/07/18 02:25:02;;;;;;;;;;;21.70;99.90;;;;;;4992084;28;19989;-74
2023/07/18 02:27:27;;;;;;;;;;;21.80;99.90;;;;;;4988614;28;19934;-73
2023/07/18 02:29:53;;;;;;;;;;;21.70;99.90;;;;;;4989327;28;19957;-73
2023/07/18 02:32:18;;;;;;;;;;;21.70;99.90;;;;;;4987917;28;20026;-73
2023/07/18 02:34:44;;;;;;;;;;;21.70;99.90;;;;;;4992873;28;21275;-75
2023/07/18 02:37:10;;;;;;;;;;;21.70;99.90;;;;;;4990512;28;19936;-73
2023/07/18 02:39:35;;;;;;;;;;;21.70;99.90;;;;;;4989085;28;21002;-73
2023/07/18 02:42:02;;;;;;;;;;;21.70;99.90;;;;;;4987768;28;20430;-73
2023/07/18 02:44:28;;;;;;;;;;;21.70;99.90;;;;;;4994662;28;19939;-74
2023/07/18 02:46:53;;;;;;;;;;;21.70;99.90;;;;;;4989564;28;19941;-74
2023/07/18 02:49:19;;;;;;;;;;;21.70;99.90;;;;;;4983933;28;19948;-74
2023/07/18 02:51:44;;;;;;;;;;;21.70;99.90;;;;;;4988085;28;19971;-75
2023/07/18 02:54:10;;;;;;;;;;;21.70;99.90;;;;;;4985008;28;19936;-75
2023/07/18 02:56:36;;;;;;;;;;;21.70;99.90;;;;;;4982558;28;20041;-75
2023/07/18 02:59:01;;;;;;;;;;;21.70;99.90;;;;;;4987802;28;19934;-73
2023/07/18 03:01:27;;;;;;;;;;;21.70;99.90;;;;;;4984593;28;19971;-74
2023/07/18 03:03:54;;;;;;;;;;;21.70;99.90;;;;;;4979246;28;19939;-75
2023/07/18 03:06:20;;;;;;;;;;;21.70;99.90;;;;;;4988483;28;19957;-74
2023/07/18 03:08:45;;;;;;;;;;;21.70;99.90;;;;;;4988614;28;19936;-74
2023/07/18 03:11:11;;;;;;;;;;;21.70;99.90;;;;;;4988428;28;19962;-74
2023/07/18 03:13:36;;;;;;;;;;;21.70;99.90;;;;;;4987047;28;20744;-74
2023/07/18 03:16:04;;;;;;;;;;;21.70;99.90;;;;;;4990522;28;19948;-74
2023/07/18 03:18:30;;;;;;;;;;;21.70;99.90;;;;;;4984196;28;20884;-73
2023/07/18 03:20:55;;;;;;;;;;;21.60;99.90;;;;;;4984063;28;21546;-74
2023/07/18 03:23:21;;;;;;;;;;;21.60;99.90;;;;;;4986008;28;19937;-75
2023/07/18 03:25:47;;;;;;;;;;;21.70;99.90;;;;;;4982033;28;19948;-73
2023/07/18 03:28:12;;;;;;;;;;;21.70;99.90;;;;;;4981246;28;20372;-73
2023/07/18 03:30:40;;;;;;;;;;;21.70;99.90;;;;;;4985030;28;19965;-73
2023/07/18 03:33:06;;;;;;;;;;;21.80;99.90;;;;;;4989352;28;19944;-74
2023/07/18 03:35:32;;;;;;;;;;;21.80;99.90;;;;;;4989759;28;20053;-74
2023/07/18 03:37:58;;;;;;;;;;;21.80;99.90;;;;;;4982102;28;19974;-74
2023/07/18 03:40:23;;;;;;;;;;;21.80;99.90;;;;;;4981589;28;20160;-74
2023/07/18 03:42:49;;;;;;;;;;;21.80;99.90;;;;;;4979565;28;19941;-75
2023/07/18 03:45:15;;;;;;;;;;;21.80;99.90;;;;;;4983886;28;20389;-74
2023/07/18 03:47:41;;;;;;;;;;;21.80;99.90;;;;;;4962270;28;19953;-72
2023/07/18 03:50:08;;;;;;;;;;;21.80;99.90;;;;;;4982290;28;19958;-73
2023/07/18 03:52:34;;;;;;;;;;;21.80;99.90;;;;;;4985327;28;19926;-73
2023/07/18 03:54:59;;;;;;;;;;;21.90;99.90;;;;;;4981835;28;19940;-73
2023/07/18 03:57:27;;;;;;;;;;;21.90;99.90;;;;;;4986563;28;19951;-73
2023/07/18 03:59:52;;;;;;;;;;;21.90;99.90;;;;;;4982666;28;19934;-68
2023/07/18 04:02:18;;;;;;;;;;;22.00;99.90;;;;;;4984236;28;19973;-69
2023/07/18 04:04:43;;;;;;;;;;;22.10;99.90;;;;;;4984618;28;19940;-69
2023/07/18 04:07:09;;;;;;;;;;;22.10;99.90;;;;;;4981793;28;20630;-70
2023/07/18 04:09:34;;;;;;;;;;;22.20;99.90;;;;;;4982348;28;19984;-68
2023/07/18 04:12:00;;;;;;;;;;;22.20;99.90;;;;;;4979833;28;19947;-70
2023/07/18 04:14:26;;;;;;;;;;;22.30;99.90;;;;;;4982666;28;19938;-68
2023/07/18 04:16:52;;;;;;;;;;;22.30;99.90;;;;;;4980955;28;19941;-69
2023/07/18 04:19:18;;;;;;;;;;;22.40;99.90;;;;;;4989487;28;20032;-70
2023/07/18 04:21:44;;;;;;;;;;;22.50;99.90;;;;;;4984369;28;20030;-69
2023/07/18 04:24:10;;;;;;;;;;;22.60;99.90;;;;;;4986506;28;20001;-68
2023/07/18 04:26:35;;;;;;;;;;;22.70;99.90;;;;;;4977849;28;20042;-68
2023/07/18 04:29:03;;;;;;;;;;;22.80;99.90;;;;;;4982222;28;19938;-68
2023/07/18 04:31:28;;;;;;;;;;;22.90;99.90;;;;;;4981817;28;20053;-69
2023/07/18 04:33:54;;;;;;;;;;;23.00;99.90;;;;;;4981365;28;20355;-75
2023/07/18 04:36:19;;;;;;;;;;;23.10;99.90;;;;;;4985821;28;20463;-74
2023/07/18 04:38:45;;;;;;;;;;;23.10;99.90;;;;;;4988695;28;19941;-74
2023/07/18 04:41:10;;;;;;;;;;;23.20;99.90;;;;;;4983552;28;21163;-73
2023/07/18 04:43:35;;;;;;;;;;;23.30;99.90;;;;;;4982014;28;19938;-75
2023/07/18 04:46:03;;;;;;;;;;;23.40;99.90;;;;;;4987385;28;20089;-74
2023/07/18 04:48:29;;;;;;;;;;;23.50;99.90;;;;;;4992834;28;19931;-75
2023/07/18 04:50:58;;;;;;;;;;;23.60;99.90;;;;;;4987777;28;19959;-75
2023/07/18 04:53:27;;;;;;;;;;;23.70;99.90;;;;;;4988554;28;19934;-68
2023/07/18 04:55:55;;;;;;;;;;;23.70;99.90;;;;;;4984900;28;19939;-69
2023/07/18 04:58:21;;;;;;;;;;;23.80;99.90;;;;;;4986530;28;20000;-68
2023/07/18 05:00:47;;;;;;;;;;;23.90;99.90;;;;;;4985214;28;20561;-68
2023/07/18 05:03:13;;;;;;;;;;;24.00;99.90;;;;;;4989110;28;19959;-69
2023/07/18 05:05:38;;;;;;;;;;;24.10;99.90;;;;;;4978737;28;20497;-70
2023/07/18 05:08:04;;;;;;;;;;;24.10;99.90;;;;;;4986150;28;20036;-69
2023/07/18 05:10:29;;;;;;;;;;;24.20;99.90;;;;;;4988606;28;20048;-65
2023/07/18 05:12:55;;;;;;;;;;;24.20;99.90;;;;;;4984507;28;19933;-76
2023/07/18 05:15:21;;;;;;;;;;;24.30;99.90;;;;;;4980297;28;19943;-75
2023/07/18 05:17:47;;;;;;;;;;;24.30;99.90;;;;;;4985647;28;19942;-77
2023/07/18 05:20:13;;;;;;;;;;;24.40;99.90;;;;;;4986633;28;19933;-76
2023/07/18 05:22:39;;;;;;;;;;;24.50;99.90;;;;;;4985736;28;19929;-76
2023/07/18 05:25:05;;;;;;;;;;;24.50;99.90;;;;;;4982896;28;19934;-76
2023/07/18 05:27:31;;;;;;;;;;;24.60;99.90;;;;;;4982164;28;20047;-75
2023/07/18 05:29:56;;;;;;;;;;;24.60;99.90;;;;;;4984766;28;20675;-75
2023/07/18 05:32:22;;;;;;;;;;;24.80;99.90;;;;;;4985412;28;19938;-74
2023/07/18 05:34:49;;;;;;;;;;;24.90;99.90;;;;;;4981733;28;20044;-74
2023/07/18 05:37:15;;;;;;;;;;;24.90;99.90;;;;;;4982199;28;20019;-76
2023/07/18 05:39:41;;;;;;;;;;;25.00;99.90;;;;;;4979377;28;19954;-73
2023/07/18 05:42:06;;;;;;;;;;;25.10;99.90;;;;;;4978767;28;19937;-75
2023/07/18 05:44:32;;;;;;;;;;;25.20;99.90;;;;;;4982317;28;19957;-75
2023/07/18 05:46:58;;;;;;;;;;;25.30;99.90;;;;;;4988227;28;19934;-73
2023/07/18 05:49:24;;;;;;;;;;;25.40;99.90;;;;;;4993252;28;19935;-74
2023/07/18 05:51:50;;;;;;;;;;;25.50;99.90;;;;;;4987426;28;19959;-74
2023/07/18 05:54:15;;;;;;;;;;;25.60;99.90;;;;;;4986430;28;19935;-74
2023/07/18 05:56:41;;;;;;;;;;;25.60;99.90;;;;;;4990052;28;19935;-72
2023/07/18 05:59:07;;;;;;;;;;;25.80;99.90;;;;;;4990107;28;19934;-75
2023/07/18 06:01:33;;;;;;;;;;;25.90;99.90;;;;;;4983748;28;20938;-76
2023/07/18 06:03:59;;;;;;;;;;;26.00;99.90;;;;;;4991349;28;19932;-75
2023/07/18 06:06:24;;;;;;;;;;;26.10;99.90;;;;;;4988694;28;20044;-67
2023/07/18 06:08:51;;;;;;;;;;;26.20;99.90;;;;;;4990647;28;20089;-67
2023/07/18 06:11:18;;;;;;;;;;;26.30;99.90;;;;;;4983447;28;19963;-69
2023/07/18 06:13:44;;;;;;;;;;;26.50;99.90;;;;;;4996163;28;20031;-69
2023/07/18 06:16:10;;;;;;;;;;;26.60;99.90;;;;;;4989322;28;19939;-67
2023/07/18 06:18:36;;;;;;;;;;;26.80;99.90;;;;;;4989628;28;20490;-69
2023/07/18 06:21:02;;;;;;;;;;;26.80;99.90;;;;;;4967455;28;20048;-69
2023/07/18 06:23:29;;;;;;;;;;;26.90;99.90;;;;;;4994426;28;19945;-69
2023/07/18 06:25:55;;;;;;;;;;;26.90;99.90;;;;;;4987170;28;20074;-69
2023/07/18 06:28:20;;;;;;;;;;;26.90;99.90;;;;;;4992629;28;20018;-69
2023/07/18 06:30:46;;;;;;;;;;;26.90;99.90;;;;;;4986639;28;19968;-69
2023/07/18 06:33:11;;;;;;;;;;;27.00;99.90;;;;;;4990210;28;20213;-70
2023/07/18 06:35:37;;;;;;;;;;;27.00;99.90;;;;;;4995333;28;19947;-69
2023/07/18 06:38:03;;;;;;;;;;;27.00;99.90;;;;;;4991484;28;20030;-69
2023/07/18 06:40:28;;;;;;;;;;;27.10;99.90;;;;;;4990945;28;20021;-70
2023/07/18 06:42:54;;;;;;;;;;;27.20;99.90;;;;;;4980957;28;19933;-69
2023/07/18 06:45:19;;;;;;;;;;;27.20;99.90;;;;;;4984567;28;19948;-70
2023/07/18 06:47:45;;;;;;;;;;;27.30;99.90;;;;;;4984681;28;19932;-71
2023/07/18 06:50:11;;;;;;;;;;;27.30;99.90;;;;;;4986710;28;20403;-69
2023/07/18 06:52:37;;;;;;;;;;;27.40;99.90;;;;;;4991414;28;19934;-71
2023/07/18 06:55:03;;;;;;;;;;;27.50;99.90;;;;;;4989206;28;20481;-69
2023/07/18 06:57:29;;;;;;;;;;;27.50;99.90;;;;;;4996162;28;20026;-71
2023/07/18 06:59:55;;;;;;;;;;;27.60;99.90;;;;;;4991467;28;19966;-70
2023/07/18 07:02:20;;;;;;;;;;;27.70;99.90;;;;;;4982076;28;19963;-70
2023/07/18 07:04:46;;;;;;;;;;;27.70;99.90;;;;;;4985165;28;20395;-70
2023/07/18 07:07:12;;;;;;;;;;;27.80;99.90;;;;;;4986282;28;19933;-70
2023/07/18 07:09:37;;;;;;;;;;;27.70;99.50;;;;;;4990055;28;20127;-69
2023/07/18 07:12:03;;;;;;;;;;;27.60;99.90;;;;;;4986413;28;20519;-69
2023/07/18 07:14:29;;;;;;;;;;;27.70;99.90;;;;;;4991139;28;19968;-69
2023/07/18 07:16:55;;;;;;;;;;;27.80;99.20;;;;;;4987932;28;20586;-70
2023/07/18 07:19:21;;;;;;;;;;;27.80;99.90;;;;;;4985594;28;19936;-70
2023/07/18 07:21:47;;;;;;;;;;;27.90;97.20;;;;;;4990497;28;19938;-71
2023/07/18 07:24:12;;;;;;;;;;;27.90;98.60;;;;;;4974086;28;19971;-72
2023/07/18 07:26:37;;;;;;;;;;;28.10;99.90;;;;;;4971178;28;19968;-72
2023/07/18 07:29:04;;;;;;;;;;;28.20;95.90;;;;;;4991683;28;19928;-71
2023/07/18 07:31:30;;;;;;;;;;;28.20;97.80;;;;;;4993279;28;20343;-72
2023/07/18 07:33:56;;;;;;;;;;;28.30;97.50;;;;;;4994455;28;19950;-71
2023/07/18 07:36:21;;;;;;;;;;;28.40;95.00;;;;;;4991469;28;20466;-71
2023/07/18 07:38:48;;;;;;;;;;;28.40;97.50;;;;;;4985918;28;20027;-70
2023/07/18 07:41:13;;;;;;;;;;;28.40;96.80;;;;;;4990169;28;19928;-71
2023/07/18 07:43:39;;;;;;;;;;;28.40;93.80;;;;;;4994307;28;19938;-70
2023/07/18 07:46:05;;;;;;;;;;;28.30;95.20;;;;;;4995910;28;20010;-70
2023/07/18 07:48:30;;;;;;;;;;;28.40;95.20;;;;;;4992836;28;20710;-70
2023/07/18 07:50:57;;;;;;;;;;;28.40;93.00;;;;;;4996947;28;19954;-71
2023/07/18 07:53:23;;;;;;;;;;;28.40;95.40;;;;;;4990969;28;19957;-71
2023/07/18 07:55:48;;;;;;;;;;;28.50;93.70;;;;;;4986590;28;19933;-71
2023/07/18 07:58:14;;;;;;;;;;;28.60;94.60;;;;;;4978964;28;19967;-72
2023/07/18 08:00:39;;;;;;;;;;;28.60;93.10;;;;;;4986277;28;19974;-72
2023/07/18 08:03:05;;;;;;;;;;;28.60;93.80;;;;;;4986526;28;20322;-70
2023/07/18 08:05:30;;;;;;;;;;;28.70;92.20;;;;;;4990741;28;20030;-71
2023/07/18 08:07:56;;;;;;;;;;;28.70;93.70;;;;;;4983692;28;19995;-72
2023/07/18 08:10:21;;;;;;;;;;;28.80;94.40;;;;;;4987102;28;19966;-71
2023/07/18 08:12:47;;;;;;;;;;;28.80;91.10;;;;;;4986899;28;19931;-72
2023/07/18 08:15:13;;;;;;;;;;;28.70;89.50;;;;;;4983822;28;19931;-72
2023/07/18 08:17:38;;;;;;;;;;;28.40;93.00;;;;;;4987681;28;19927;-70
2023/07/18 08:20:04;;;;;;;;;;;28.40;88.50;;;;;;4990584;28;19942;-71
2023/07/18 08:22:30;;;;;;;;;;;28.30;85.00;;;;;;4992374;28;19935;-70
2023/07/18 08:24:55;;;;;;;;;;;28.20;90.50;;;;;;4988141;28;19942;-71
2023/07/18 08:27:21;;;;;;;;;;;28.40;90.30;;;;;;4981472;28;19994;-70
2023/07/18 08:29:46;;;;;;;;;;;28.50;86.80;;;;;;4987395;28;20012;-71
2023/07/18 08:32:12;;;;;;;;;;;28.30;81.00;;;;;;4981860;28;20446;-71
2023/07/18 08:34:37;;;;;;;;;;;28.20;82.10;;;;;;4994000;28;19967;-67
2023/07/18 08:37:05;;;;;;;;;;;28.20;87.00;;;;;;4987335;28;19959;-68
2023/07/18 08:39:31;;;;;;;;;;;28.30;83.40;;;;;;4982480;28;20058;-68
2023/07/18 08:41:57;;;;;;;;;;;28.20;84.60;;;;;;4984264;28;20047;-69
2023/07/18 08:44:23;;;;;;;;;;;28.20;82.80;;;;;;4973379;28;19935;-70
2023/07/18 08:46:49;;;;;;;;;;;28.10;81.30;;;;;;4991332;28;19932;-69
2023/07/18 08:49:18;;;;;;;;;;;28.00;84.10;;;;;;4991375;28;20034;-68
2023/07/18 08:51:44;;;;;;;;;;;28.00;86.40;;;;;;4992865;28;19972;-70
2023/07/18 08:54:10;;;;;;;;;;;28.00;83.80;;;;;;4994187;28;19970;-68
2023/07/18 08:56:37;;;;;;;;;;;28.00;83.00;;;;;;4999473;28;19969;-67
2023/07/18 08:59:02;;;;;;;;;;;28.00;81.10;;;;;;4990648;28;20382;-68
2023/07/18 09:01:28;;;;;;;;;;;28.00;84.00;;;;;;4991784;28;19949;-67
2023/07/18 09:03:54;;;;;;;;;;;28.10;84.90;;;;;;4993872;28;19941;-68
2023/07/18 09:06:21;;;;;;;;;;;28.20;83.90;;;;;;4998360;28;20693;-68
2023/07/18 09:08:47;;;;;;;;;;;28.30;78.10;;;;;;4998934;28;20234;-67
2023/07/18 09:11:16;;;;;;;;;;;28.30;82.60;;;;;;4997016;28;19959;-67
2023/07/18 09:13:42;;;;;;;;;;;28.30;82.60;;;;;;4975204;28;19968;-67
2023/07/18 09:16:14;;;;;;;;;;;28.40;80.90;;;;;;5000333;28;20024;-67
2023/07/18 09:18:50;;;;;;;;;;;28.40;79.70;;;;;;4997428;28;19938;-68
2023/07/18 09:21:15;;;;;;;;;;;28.40;85.20;;;;;;4999436;28;20071;-67
2023/07/18 09:23:42;;;;;;;;;;;28.50;80.70;;;;;;4999010;28;19938;-68
2023/07/18 09:26:08;;;;;;;;;;;28.40;79.70;;;;;;4991773;28;19926;-67
2023/07/18 09:28:34;;;;;;;;;;;28.30;78.00;;;;;;4994436;28;19964;-72
2023/07/18 09:31:00;;;;;;;;;;;28.30;86.20;;;;;;4987321;28;19961;-71
2023/07/18 09:33:26;;;;;;;;;;;28.40;80.80;;;;;;4994014;28;20528;-72
2023/07/18 09:35:51;;;;;;;;;;;28.50;84.80;;;;;;4986010;28;19942;-73
2023/07/18 09:38:18;;;;;;;;;;;28.60;89.60;;;;;;4988102;28;20066;-71
2023/07/18 09:40:44;;;;;;;;;;;28.80;85.60;;;;;;4986765;28;19983;-71
2023/07/18 09:43:11;;;;;;;;;;;28.90;85.30;;;;;;4994744;28;19940;-71
2023/07/18 09:45:38;;;;;;;;;;;28.90;79.10;;;;;;4992021;28;19938;-72
2023/07/18 09:48:03;;;;;;;;;;;28.80;80.80;;;;;;4994334;28;19975;-71
2023/07/18 09:50:32;;;;;;;;;;;28.80;83.50;;;;;;4975080;28;20376;-71
2023/07/18 09:52:59;;;;;;;;;;;28.90;84.70;;;;;;4994747;28;20020;-72
2023/07/18 09:55:26;;;;;;;;;;;29.00;88.50;;;;;;4989139;28;19949;-71
2023/07/18 09:57:55;;;;;;;;;;;29.10;85.00;;;;;;4991145;28;20445;-71
2023/07/18 10:00:25;;;;;;;;;;;29.10;88.70;;;;;;4965756;28;20818;-71
2023/07/18 10:02:52;;;;;;;;;;;29.00;77.40;;;;;;4989754;28;19971;-72
2023/07/18 10:05:18;;;;;;;;;;;28.80;81.20;;;;;;4989833;28;19934;-71
2023/07/18 10:07:44;;;;;;;;;;;28.80;85.30;;;;;;4975101;28;20334;-66
2023/07/18 10:10:10;;;;;;;;;;;28.90;81.20;;;;;;4986365;28;19985;-67
2023/07/18 10:12:37;;;;;;;;;;;29.00;84.10;;;;;;4987673;28;19966;-68
2023/07/18 10:15:04;;;;;;;;;;;29.20;83.00;;;;;;4990348;28;19957;-65
2023/07/18 10:17:36;;;;;;;;;;;29.20;80.90;;;;;;4993563;28;19934;-68
2023/07/18 10:20:05;;;;;;;;;;;29.20;81.00;;;;;;4989328;28;19977;-67
2023/07/18 10:22:31;;;;;;;;;;;29.30;87.00;;;;;;4984493;28;20153;-67
2023/07/18 10:24:58;;;;;;;;;;;29.30;87.90;;;;;;4981409;28;20438;-67
2023/07/18 10:27:33;;;;;;;;;;;29.50;86.50;;;;;;4988977;28;19934;-67
2023/07/18 10:30:05;;;;;;;;;;;29.70;81.90;;;;;;4994403;28;19976;-67
2023/07/18 10:32:32;;;;;;;;;;;29.70;79.00;;;;;;4987846;28;19985;-66
2023/07/18 10:34:59;;;;;;;;;;;29.70;81.70;;;;;;4982956;28;19959;-65
2023/07/18 10:37:26;;;;;;;;;;;29.60;77.80;;;;;;4987526;28;19937;-67
2023/07/18 10:39:52;;;;;;;;;;;29.50;76.00;;;;;;4989703;28;20526;-67
2023/07/18 10:42:26;;;;;;;;;;;29.30;78.30;;;;;;4988751;28;19947;-67
2023/07/18 10:44:54;;;;;;;;;;;29.30;80.10;;;;;;4986231;28;20446;-68
2023/07/18 10:47:20;;;;;;;;;;;29.40;79.20;;;;;;4984140;28;19935;-66
2023/07/18 10:49:47;;;;;;;;;;;29.30;72.20;;;;;;4967429;28;19939;-67
2023/07/18 10:52:13;;;;;;;;;;;29.40;85.20;;;;;;4989854;28;20419;-67
2023/07/18 10:54:58;;;;;;;;;;;29.50;82.70;;;;;;4988855;28;19937;-66
2023/07/18 10:57:28;;;;;;;;;;;29.70;87.40;;;;;;4992400;28;19950;-68
2023/07/18 10:59:54;;;;;;;;;;;29.90;80.80;;;;;;4981051;28;19948;-68
2023/07/18 11:02:20;;;;;;;;;;;29.90;79.90;;;;;;4984175;28;20429;-67
2023/07/18 11:04:51;;;;;;;;;;;29.90;81.10;;;;;;4985410;28;19942;-68
2023/07/18 11:07:16;;;;;;;;;;;29.90;75.10;;;;;;4977615;28;20018;-66
2023/07/18 11:09:42;;;;;;;;;;;29.80;74.20;;;;;;4984091;28;19938;-67
2023/07/18 11:12:17;;;;;;;;;;;29.70;75.50;;;;;;4984134;28;19959;-67
2023/07/18 11:14:43;;;;;;;;;;;29.70;77.70;;;;;;4985634;28;20388;-67
2023/07/18 11:17:13;;;;;;;;;;;29.60;75.10;;;;;;4984554;28;19971;-67
2023/07/18 11:19:38;;;;;;;;;;;29.40;76.10;;;;;;4991133;28;20020;-72
2023/07/18 11:22:05;;;;;;;;;;;29.50;75.70;;;;;;4993113;28;20033;-71
2023/07/18 11:24:31;;;;;;;;;;;29.50;80.60;;;;;;4990206;28;20032;-71
2023/07/18 11:27:32;;;;;;;;;;;29.60;81.70;;;;;;4990949;28;20539;-73
2023/07/18 11:29:58;;;;;;;;;;;29.70;83.70;;;;;;4913824;28;19940;-71
2023/07/18 11:32:34;;;;;;;;;;;29.80;81.60;;;;;;4977960;28;20998;-71
2023/07/18 11:35:00;;;;;;;;;;;29.90;81.20;;;;;;4986851;28;19946;-71
2023/07/18 11:37:26;;;;;;;;;;;29.90;79.00;;;;;;4989345;28;19941;-71
2023/07/18 11:39:55;;;;;;;;;;;29.90;83.10;;;;;;4984925;28;19947;-71
2023/07/18 11:42:21;;;;;;;;;;;30.10;84.20;;;;;;4985294;28;19987;-71
2023/07/18 11:44:47;;;;;;;;;;;30.20;80.30;;;;;;4983990;28;20037;-72
2023/07/18 11:47:13;;;;;;;;;;;30.20;79.10;;;;;;4983241;28;19934;-72
2023/07/18 11:49:39;;;;;;;;;;;30.30;77.30;;;;;;4989803;28;20234;-72
2023/07/18 11:52:05;;;;;;;;;;;30.30;75.60;;;;;;4984892;28;20434;-71
2023/07/18 11:54:35;;;;;;;;;;;30.20;75.20;;;;;;4989253;28;19943;-71
2023/07/18 11:57:03;;;;;;;;;;;30.10;80.10;;;;;;4986241;28;21195;-71
2023/07/18 11:59:28;;;;;;;;;;;30.10;76.60;;;;;;4984594;28;19933;-71
2023/07/18 12:01:54;;;;;;;;;;;30.10;79.60;;;;;;4987768;28;19958;-73
2023/07/18 12:04:20;;;;;;;;;;;30.20;82.20;;;;;;4985877;28;20369;-72
2023/07/18 12:06:46;;;;;;;;;;;30.30;80.30;;;;;;4986832;28;20397;-71
2023/07/18 12:09:12;;;;;;;;;;;30.30;75.00;;;;;;4981438;28;19940;-71
2023/07/18 12:11:38;;;;;;;;;;;30.20;75.40;;;;;;4977569;28;19962;-72
2023/07/18 12:14:06;;;;;;;;;;;30.10;79.60;;;;;;4983317;28;19941;-72
2023/07/18 12:16:32;;;;;;;;;;;30.10;78.40;;;;;;4980000;28;19934;-72
2023/07/18 12:18:57;;;;;;;;;;;30.30;80.40;;;;;;4979115;28;20605;-71
2023/07/18 12:21:23;;;;;;;;;;;30.40;80.40;;;;;;4983986;28;20316;-72
2023/07/18 12:23:48;;;;;;;;;;;30.50;82.10;;;;;;4986609;28;19935;-71
2023/07/18 12:26:13;;;;;;;;;;;30.50;78.20;;;;;;4982536;28;19939;-72
2023/07/18 12:28:39;;;;;;;;;;;30.50;80.10;;;;;;4992581;28;20015;-70
2023/07/18 12:31:07;;;;;;;;;;;30.50;75.70;;;;;;4993502;28;19961;-71
2023/07/18 12:33:33;;;;;;;;;;;30.30;74.60;;;;;;4992600;28;20410;-71
2023/07/18 12:35:59;;;;;;;;;;;30.30;75.30;;;;;;4989770;28;19970;-71
2023/07/18 12:38:24;;;;;;;;;;;30.30;76.50;;;;;;4986939;28;20040;-70
2023/07/18 12:40:50;;;;;;;;;;;30.40;74.10;;;;;;4988445;28;20622;-71
2023/07/18 12:43:15;;;;;;;;;;;30.50;77.70;;;;;;4988819;28;19953;-70
2023/07/18 12:45:41;;;;;;;;;;;30.50;73.80;;;;;;4990406;28;19943;-72
2023/07/18 12:48:07;;;;;;;;;;;30.60;78.00;;;;;;4985829;28;19929;-71
2023/07/18 12:50:32;;;;;;;;;;;30.60;72.70;;;;;;4980305;28;20432;-72
2023/07/18 12:52:58;;;;;;;;;;;30.60;72.70;;;;;;4990066;28;19934;-72
2023/07/18 12:55:24;;;;;;;;;;;30.40;70.80;;;;;;4989791;28;19972;-74
2023/07/18 12:57:49;;;;;;;;;;;30.30;69.60;;;;;;4984286;28;20045;-73
2023/07/18 13:00:16;;;;;;;;;;;30.30;69.80;;;;;;4986488;28;20331;-71
2023/07/18 13:02:42;;;;;;;;;;;30.30;73.60;;;;;;4979500;28;20083;-72
2023/07/18 13:05:07;;;;;;;;;;;30.40;74.40;;;;;;4981230;28;19948;-75
2023/07/18 13:07:33;;;;;;;;;;;30.50;76.80;;;;;;4985120;28;19936;-71
2023/07/18 13:09:59;;;;;;;;;;;30.60;72.30;;;;;;4982839;28;19939;-71
2023/07/18 13:12:28;;;;;;;;;;;30.60;74.40;;;;;;4983531;28;19941;-72
2023/07/18 13:14:54;;;;;;;;;;;30.60;69.30;;;;;;4981055;28;20062;-72
2023/07/18 13:17:20;;;;;;;;;;;30.50;70.90;;;;;;4986013;28;19940;-71
2023/07/18 13:19:46;;;;;;;;;;;30.40;75.90;;;;;;4986735;28;19941;-70
2023/07/18 13:22:12;;;;;;;;;;;30.50;76.80;;;;;;4984165;28;19940;-71
2023/07/18 13:24:38;;;;;;;;;;;30.60;75.30;;;;;;4987136;28;20571;-71
2023/07/18 13:27:03;;;;;;;;;;;30.70;73.90;;;;;;4988915;28;19997;-70
2023/07/18 13:29:29;;;;;;;;;;;30.70;76.30;;;;;;4988434;28;19941;-73
2023/07/18 13:31:55;;;;;;;;;;;30.70;74.30;;;;;;4983329;28;20765;-72
2023/07/18 13:34:21;;;;;;;;;;;30.70;75.00;;;;;;4975263;28;19950;-72
2023/07/18 13:36:47;;;;;;;;;;;30.70;71.40;;;;;;4984245;28;19964;-72
2023/07/18 13:39:13;;;;;;;;;;;30.70;74.20;;;;;;4986906;28;19934;-73
2023/07/18 13:41:38;;;;;;;;;;;30.80;70.60;;;;;;4989534;28;19936;-71
2023/07/18 13:44:04;;;;;;;;;;;30.80;69.30;;;;;;4969366;28;19945;-72
2023/07/18 13:46:29;;;;;;;;;;;30.80;72.20;;;;;;4970166;28;19947;-71
2023/07/18 13:48:55;;;;;;;;;;;30.90;72.40;;;;;;4987906;28;19939;-70
2023/07/18 13:51:20;;;;;;;;;;;30.90;68.70;;;;;;4987235;28;19960;-72
2023/07/18 13:53:46;;;;;;;;;;;30.80;69.90;;;;;;4987663;28;19941;-73
2023/07/18 13:56:11;;;;;;;;;;;30.70;66.70;;;;;;4984587;28;20562;-72
2023/07/18 13:58:37;;;;;;;;;;;30.60;67.90;;;;;;4988881;28;19934;-71
2023/07/18 14:01:02;;;;;;;;;;;30.60;68.60;;;;;;4982669;28;20422;-71
2023/07/18 14:03:28;;;;;;;;;;;30.60;70.70;;;;;;4989095;28;20062;-72
2023/07/18 14:05:54;;;;;;;;;;;30.70;74.80;;;;;;4985520;28;19929;-67
2023/07/18 14:08:20;;;;;;;;;;;30.70;69.10;;;;;;4984813;28;19940;-66
2023/07/18 14:10:45;;;;;;;;;;;30.60;73.20;;;;;;4992684;28;19962;-67